Time,TemperatureF,DewpointF,PressureIn,WindDirection,WindDirectionDegrees,WindSpeedMPH,WindSpeedGustMPH,Humidity,HourlyPrecipIn,Conditions,Clouds,dailyrainin,SolarRadiationWatts/m^2,SoftwareType,DateUTC
2013-03-27 00:06:00,56.2,53.6,29.61,WSW,250,4.0,6.0,91,0.00,,,0.00,0,Wunderground v.1.15,2013-03-26 23:06:00,
2013-03-27 00:12:00,56.2,53.6,29.61,WSW,249,2.0,2.0,91,0.00,,,0.00,0,Wunderground v.1.15,2013-03-26 23:12:00,
2013-03-27 00:18:00,56.2,53.6,29.60,WSW,250,1.0,5.0,91,0.00,,,0.00,0,Wunderground v.1.15,2013-03-26 23:18:00,
2013-03-27 00:26:00,56.1,53.5,29.61,WSW,249,4.0,6.0,91,0.00,,,0.00,0,Wunderground v.1.15,2013-03-26 23:26:00,
2013-03-27 00:32:00,56.1,53.5,29.60,WSW,249,5.0,5.0,91,0.00,,,0.00,0,Wunderground v.1.15,2013-03-26 23:32:00,
2013-03-27 00:38:00,56.0,53.4,29.60,WSW,250,3.0,5.0,91,0.00,,,0.00,0,Wunderground v.1.15,2013-03-26 23:38:00,
2013-03-27 00:46:00,55.9,53.3,29.60,WSW,250,4.0,4.0,91,0.00,,,0.00,0,Wunderground v.1.15,2013-03-26 23:46:00,
2013-03-27 00:52:00,55.9,53.3,29.60,WSW,250,3.0,3.0,91,0.00,,,0.00,0,Wunderground v.1.15,2013-03-26 23:52:00,
2013-03-27 00:58:00,55.9,53.3,29.60,WSW,249,1.0,3.0,91,0.00,,,0.00,0,Wunderground v.1.15,2013-03-26 23:58:00,
2013-03-27 01:06:00,55.9,53.6,29.59,WSW,249,1.0,2.0,92,0.00,,,0.00,0,Wunderground v.1.15,2013-03-27 00:06:00,
2013-03-27 01:12:00,55.9,53.3,29.60,WSW,249,1.0,1.0,91,0.00,,,0.00,0,Wunderground v.1.15,2013-03-27 00:12:00,
2013-03-27 01:18:00,55.9,53.6,29.59,WSW,250,0.0,1.0,92,0.00,,,0.00,0,Wunderground v.1.15,2013-03-27 00:18:00,
2013-03-27 01:26:00,55.9,53.6,29.59,WSW,250,0.0,0.0,92,0.00,,,0.00,0,Wunderground v.1.15,2013-03-27 00:26:00,
2013-03-27 01:32:00,56.0,53.7,29.59,WSW,250,1.0,4.0,92,0.00,,,0.00,0,Wunderground v.1.15,2013-03-27 00:32:00,
2013-03-27 01:38:00,56.0,53.7,29.59,WSW,249,1.0,4.0,92,0.00,,,0.00,0,Wunderground v.1.15,2013-03-27 00:38:00,
2013-03-27 01:46:00,56.0,53.7,29.59,WSW,249,0.0,1.0,92,0.00,,,0.00,0,Wunderground v.1.15,2013-03-27 00:46:00,
2013-03-27 01:52:00,56.1,53.8,29.58,WSW,249,0.0,2.0,92,0.00,,,0.00,0,Wunderground v.1.15,2013-03-27 00:52:00,
2013-03-27 01:58:00,56.1,53.8,29.58,WSW,250,2.0,5.0,92,0.00,,,0.00,0,Wunderground v.1.15,2013-03-27 00:58:00,
2013-03-27 02:06:00,56.2,53.9,29.58,West,259,5.0,6.0,92,0.00,,,0.00,0,Wunderground v.1.15,2013-03-27 01:06:00,
2013-03-27 02:12:00,56.2,53.9,29.58,WSW,250,7.0,9.0,92,0.00,,,0.00,0,Wunderground v.1.15,2013-03-27 01:12:00,
2013-03-27 02:18:00,56.3,54.0,29.58,WSW,250,6.0,9.0,92,0.00,,,0.00,0,Wunderground v.1.15,2013-03-27 01:18:00,
2013-03-27 02:26:00,56.3,54.0,29.58,WSW,242,3.0,8.0,92,0.00,,,0.00,0,Wunderground v.1.15,2013-03-27 01:26:00,
2013-03-27 02:32:00,56.3,54.0,29.57,WSW,240,4.0,6.0,92,0.00,,,0.00,0,Wunderground v.1.15,2013-03-27 01:32:00,
2013-03-27 02:38:00,56.3,53.7,29.57,WSW,241,5.0,8.0,91,0.00,,,0.00,0,Wunderground v.1.15,2013-03-27 01:38:00,
2013-03-27 02:46:00,56.2,53.6,29.57,WSW,240,6.0,10.0,91,0.00,,,0.00,0,Wunderground v.1.15,2013-03-27 01:46:00,
2013-03-27 02:52:00,56.1,53.5,29.57,SW,227,6.0,8.0,91,0.00,,,0.00,0,Wunderground v.1.15,2013-03-27 01:52:00,
2013-03-27 02:58:00,55.9,53.3,29.57,WSW,244,7.0,10.0,91,0.00,,,0.00,0,Wunderground v.1.15,2013-03-27 01:58:00,
2013-03-27 03:06:00,55.8,53.2,29.57,WSW,243,7.0,8.0,91,0.00,,,0.00,0,Wunderground v.1.15,2013-03-27 02:06:00,
2013-03-27 03:12:00,55.6,53.3,29.57,WSW,242,7.0,8.0,92,0.00,,,0.01,0,Wunderground v.1.15,2013-03-27 02:12:00,
2013-03-27 03:18:00,55.6,53.3,29.56,WSW,246,7.0,10.0,92,0.00,,,0.01,0,Wunderground v.1.15,2013-03-27 02:18:00,
2013-03-27 03:26:00,55.7,53.1,29.57,WSW,248,8.0,8.0,91,0.00,,,0.01,0,Wunderground v.1.15,2013-03-27 02:26:00,
2013-03-27 03:32:00,55.6,53.3,29.57,WSW,249,7.0,8.0,92,0.00,,,0.01,0,Wunderground v.1.15,2013-03-27 02:32:00,
2013-03-27 03:38:00,55.5,53.2,29.56,WSW,246,6.0,8.0,92,0.00,,,0.01,0,Wunderground v.1.15,2013-03-27 02:38:00,
2013-03-27 03:46:00,55.6,53.3,29.56,WSW,238,7.0,9.0,92,0.00,,,0.01,0,Wunderground v.1.15,2013-03-27 02:46:00,
2013-03-27 03:52:00,55.4,52.8,29.56,SW,235,8.0,8.0,91,0.00,,,0.01,0,Wunderground v.1.15,2013-03-27 02:52:00,
2013-03-27 03:58:00,55.2,52.6,29.56,SW,236,7.0,12.0,91,0.00,,,0.01,0,Wunderground v.1.15,2013-03-27 02:58:00,
2013-03-27 04:06:00,55.1,52.5,29.57,WSW,249,9.0,11.0,91,0.00,,,0.01,0,Wunderground v.1.15,2013-03-27 03:06:00,
2013-03-27 04:12:00,55.3,52.7,29.56,WSW,255,10.0,11.0,91,0.00,,,0.01,0,Wunderground v.1.15,2013-03-27 03:12:00,
2013-03-27 04:18:00,55.4,53.1,29.56,WSW,256,9.0,11.0,92,0.00,,,0.01,0,Wunderground v.1.15,2013-03-27 03:18:00,
2013-03-27 04:26:00,55.6,53.0,29.55,WSW,252,6.0,9.0,91,0.00,,,0.01,0,Wunderground v.1.15,2013-03-27 03:26:00,
2013-03-27 04:32:00,55.7,53.1,29.55,WSW,257,6.0,6.0,91,0.00,,,0.01,0,Wunderground v.1.15,2013-03-27 03:32:00,
2013-03-27 04:38:00,55.8,53.2,29.55,WSW,256,5.0,6.0,91,0.00,,,0.01,0,Wunderground v.1.15,2013-03-27 03:38:00,
2013-03-27 04:46:00,55.6,53.0,29.55,WSW,257,2.0,4.0,91,0.00,,,0.01,0,Wunderground v.1.15,2013-03-27 03:46:00,
2013-03-27 04:52:00,55.5,52.9,29.55,WSW,256,3.0,7.0,91,0.00,,,0.01,0,Wunderground v.1.15,2013-03-27 03:52:00,
2013-03-27 04:58:00,55.5,52.9,29.55,WSW,253,6.0,10.0,91,0.00,,,0.01,0,Wunderground v.1.15,2013-03-27 03:58:00,
2013-03-27 05:00:00,55.5,52.9,29.55,WSW,253,7.0,7.0,91,0.00,,,0.01,0,Wunderground v.1.15,2013-03-27 04:00:00,
2013-03-27 05:02:00,55.5,52.9,29.55,WSW,253,7.0,7.0,91,0.00,,,0.01,0,Wunderground v.1.15,2013-03-27 04:02:00,
2013-03-27 05:06:00,55.5,52.9,29.55,WSW,253,6.0,7.0,91,0.00,,,0.01,0,Wunderground v.1.15,2013-03-27 04:06:00,
2013-03-27 05:12:00,55.5,52.9,29.56,WSW,253,2.0,3.0,91,0.00,,,0.01,0,Wunderground v.1.15,2013-03-27 04:12:00,
2013-03-27 05:18:00,55.4,52.8,29.56,WSW,253,1.0,3.0,91,0.00,,,0.01,0,Wunderground v.1.15,2013-03-27 04:18:00,
2013-03-27 05:28:00,55.2,52.6,29.55,WSW,253,0.0,3.0,91,0.00,,,0.01,0,Wunderground v.1.15,2013-03-27 04:28:00,
2013-03-27 05:38:00,55.1,52.5,29.57,WSW,253,1.0,1.0,91,0.00,,,0.01,0,Wunderground v.1.15,2013-03-27 04:38:00,
2013-03-27 05:46:00,55.1,52.5,29.56,WSW,253,1.0,3.0,91,0.00,,,0.01,0,Wunderground v.1.15,2013-03-27 04:46:00,
2013-03-27 05:52:00,55.0,52.4,29.56,WSW,253,1.0,2.0,91,0.00,,,0.01,0,Wunderground v.1.15,2013-03-27 04:52:00,
2013-03-27 05:58:00,54.9,52.3,29.57,WSW,253,2.0,3.0,91,0.00,,,0.01,0,Wunderground v.1.15,2013-03-27 04:58:00,
2013-03-27 06:06:00,55.0,52.4,29.56,WSW,253,4.0,5.0,91,0.00,,,0.01,0,Wunderground v.1.15,2013-03-27 05:06:00,
2013-03-27 06:12:00,55.2,52.6,29.56,WSW,253,5.0,5.0,91,0.00,,,0.01,0,Wunderground v.1.15,2013-03-27 05:12:00,
2013-03-27 06:18:00,55.4,52.8,29.56,WSW,253,4.0,5.0,91,0.00,,,0.01,0,Wunderground v.1.15,2013-03-27 05:18:00,
2013-03-27 06:26:00,55.3,52.7,29.56,WSW,253,5.0,5.0,91,0.00,,,0.01,0,Wunderground v.1.15,2013-03-27 05:26:00,
2013-03-27 06:32:00,55.3,52.7,29.57,WSW,253,5.0,5.0,91,0.00,,,0.01,0,Wunderground v.1.15,2013-03-27 05:32:00,
2013-03-27 06:38:00,55.4,52.5,29.56,WSW,253,5.0,5.0,90,0.00,,,0.01,0,Wunderground v.1.15,2013-03-27 05:38:00,
2013-03-27 06:46:00,55.4,52.5,29.57,WSW,253,2.0,5.0,90,0.00,,,0.01,5,Wunderground v.1.15,2013-03-27 05:46:00,
2013-03-27 06:52:00,55.3,52.4,29.57,WSW,253,0.0,0.0,90,0.00,,,0.01,5,Wunderground v.1.15,2013-03-27 05:52:00,
2013-03-27 06:58:00,55.2,52.3,29.57,WSW,253,1.0,2.0,90,0.00,,,0.01,7,Wunderground v.1.15,2013-03-27 05:58:00,
2013-03-27 07:06:00,55.0,52.1,29.57,WSW,253,2.0,3.0,90,0.00,,,0.01,11,Wunderground v.1.15,2013-03-27 06:06:00,
2013-03-27 07:12:00,54.9,52.0,29.57,WSW,253,2.0,2.0,90,0.00,,,0.01,18,Wunderground v.1.15,2013-03-27 06:12:00,
2013-03-27 07:18:00,54.8,52.2,29.57,WSW,253,0.0,2.0,91,0.00,,,0.01,32,Wunderground v.1.15,2013-03-27 06:18:00,
2013-03-27 07:26:00,54.9,52.3,29.58,WSW,253,2.0,3.0,91,0.00,,,0.01,40,Wunderground v.1.15,2013-03-27 06:26:00,
2013-03-27 07:32:00,54.9,52.3,29.58,WSW,253,5.0,6.0,91,0.00,,,0.01,44,Wunderground v.1.15,2013-03-27 06:32:00,
2013-03-27 07:38:00,55.1,52.5,29.58,WSW,253,6.0,7.0,91,0.00,,,0.01,47,Wunderground v.1.15,2013-03-27 06:38:00,
2013-03-27 07:46:00,55.5,52.6,29.58,WSW,253,6.0,7.0,90,0.00,,,0.01,46,Wunderground v.1.15,2013-03-27 06:46:00,
2013-03-27 07:52:00,55.6,52.7,29.58,WSW,253,5.0,5.0,90,0.00,,,0.01,56,Wunderground v.1.15,2013-03-27 06:52:00,
2013-03-27 07:58:00,55.8,52.9,29.58,WSW,253,5.0,5.0,90,0.00,,,0.01,58,Wunderground v.1.15,2013-03-27 06:58:00,
2013-03-27 08:08:00,56.0,53.1,29.58,WSW,253,1.0,4.0,90,0.00,,,0.01,46,Wunderground v.1.15,2013-03-27 07:08:00,
2013-03-27 08:18:00,56.0,53.1,29.59,WSW,253,1.0,1.0,90,0.00,,,0.01,42,Wunderground v.1.15,2013-03-27 07:18:00,
2013-03-27 08:28:00,56.0,52.8,29.59,WSW,253,4.0,4.0,89,0.00,,,0.01,72,Wunderground v.1.15,2013-03-27 07:28:00,
2013-03-27 08:34:00,56.1,52.9,29.59,WSW,253,4.0,5.0,89,0.00,,,0.01,95,Wunderground v.1.15,2013-03-27 07:34:00,
2013-03-27 08:40:00,56.5,53.3,29.59,WSW,253,3.0,3.0,89,0.00,,,0.01,100,Wunderground v.1.15,2013-03-27 07:40:00,
2013-03-27 08:48:00,57.0,53.8,29.59,WSW,253,0.0,3.0,89,0.00,,,0.01,95,Wunderground v.1.15,2013-03-27 07:48:00,
2013-03-27 08:58:00,57.3,54.1,29.59,WSW,253,0.0,0.0,89,0.00,,,0.01,121,Wunderground v.1.15,2013-03-27 07:58:00,
2013-03-27 09:06:00,57.7,54.5,29.59,WSW,253,0.0,0.0,89,0.00,,,0.01,209,Wunderground v.1.15,2013-03-27 08:06:00,
2013-03-27 09:12:00,58.1,54.9,29.59,WSW,253,0.0,0.0,89,0.00,,,0.01,156,Wunderground v.1.15,2013-03-27 08:12:00,
2013-03-27 09:18:00,58.5,55.3,29.59,WSW,253,0.0,0.0,89,0.00,,,0.01,188,Wunderground v.1.15,2013-03-27 08:18:00,
2013-03-27 09:26:00,59.1,55.5,29.60,WSW,253,0.0,0.0,88,0.00,,,0.01,172,Wunderground v.1.15,2013-03-27 08:26:00,
2013-03-27 09:32:00,59.5,55.9,29.60,WSW,253,0.0,0.0,88,0.00,,,0.01,179,Wunderground v.1.15,2013-03-27 08:32:00,
2013-03-27 09:38:00,59.5,55.9,29.60,WSW,253,0.0,6.0,88,0.00,,,0.01,246,Wunderground v.1.15,2013-03-27 08:38:00,
2013-03-27 09:46:00,60.2,55.3,29.60,West,263,5.0,11.0,84,0.00,,,0.01,287,Wunderground v.1.15,2013-03-27 08:46:00,
2013-03-27 09:52:00,60.8,54.9,29.60,WSW,252,7.0,11.0,81,0.00,,,0.01,339,Wunderground v.1.15,2013-03-27 08:52:00,
2013-03-27 09:58:00,61.2,53.9,29.60,WSW,242,9.0,11.0,77,0.00,,,0.01,327,Wunderground v.1.15,2013-03-27 08:58:00,
2013-03-27 10:06:00,61.4,53.0,29.60,WNW,286,9.0,11.0,74,0.00,,,0.01,316,Wunderground v.1.15,2013-03-27 09:06:00,
2013-03-27 10:12:00,61.8,53.4,29.60,West,279,6.0,8.0,74,0.00,,,0.01,297,Wunderground v.1.15,2013-03-27 09:12:00,
2013-03-27 10:18:00,62.2,53.1,29.60,WSW,238,4.0,8.0,72,0.00,,,0.01,388,Wunderground v.1.15,2013-03-27 09:18:00,
2013-03-27 10:26:00,62.5,53.0,29.61,WSW,238,7.0,8.0,71,0.00,,,0.01,281,Wunderground v.1.15,2013-03-27 09:26:00,
2013-03-27 10:32:00,62.5,53.0,29.61,WSW,244,6.0,7.0,71,0.00,,,0.01,258,Wunderground v.1.15,2013-03-27 09:32:00,
2013-03-27 10:38:00,62.5,52.6,29.61,West,260,6.0,10.0,70,0.00,,,0.01,397,Wunderground v.1.15,2013-03-27 09:38:00,
2013-03-27 10:46:00,63.2,52.9,29.61,WNW,287,7.0,11.0,69,0.00,,,0.01,647,Wunderground v.1.15,2013-03-27 09:46:00,
2013-03-27 10:52:00,63.7,52.5,29.61,WNW,291,8.0,8.0,67,0.00,,,0.01,448,Wunderground v.1.15,2013-03-27 09:52:00,
2013-03-27 10:58:00,63.7,52.1,29.61,West,272,8.0,16.0,66,0.00,,,0.01,489,Wunderground v.1.15,2013-03-27 09:58:00,
2013-03-27 11:06:00,63.9,51.5,29.61,West,272,10.0,14.0,64,0.00,,,0.01,517,Wunderground v.1.15,2013-03-27 10:06:00,
2013-03-27 11:12:00,63.9,51.1,29.61,WNW,291,11.0,14.0,63,0.00,,,0.01,621,Wunderground v.1.15,2013-03-27 10:12:00,
2013-03-27 11:18:00,64.1,51.2,29.61,WSW,246,9.0,14.0,63,0.00,,,0.01,504,Wunderground v.1.15,2013-03-27 10:18:00,
2013-03-27 11:26:00,64.2,50.9,29.61,NW,311,9.0,15.0,62,0.00,,,0.01,536,Wunderground v.1.15,2013-03-27 10:26:00,
2013-03-27 11:32:00,63.9,50.6,29.61,WNW,291,12.0,15.0,62,0.00,,,0.01,468,Wunderground v.1.15,2013-03-27 10:32:00,
2013-03-27 11:38:00,63.8,51.0,29.61,West,272,12.0,15.0,63,0.00,,,0.01,552,Wunderground v.1.15,2013-03-27 10:38:00,
2013-03-27 11:48:00,63.5,50.7,29.62,West,272,10.0,11.0,63,0.00,,,0.01,476,Wunderground v.1.15,2013-03-27 10:48:00,
2013-03-27 11:56:00,63.3,50.5,29.61,WNW,301,11.0,11.0,63,0.00,,,0.01,329,Wunderground v.1.15,2013-03-27 10:56:00,
2013-03-27 12:02:00,63.3,50.5,29.61,WNW,287,11.0,11.0,63,0.00,,,0.01,278,Wunderground v.1.15,2013-03-27 11:02:00,
2013-03-27 12:08:00,63.4,50.1,29.62,West,269,9.0,14.0,62,0.00,,,0.01,278,Wunderground v.1.15,2013-03-27 11:08:00,
2013-03-27 12:16:00,63.7,50.9,29.62,WNW,294,7.0,8.0,63,0.00,,,0.01,461,Wunderground v.1.15,2013-03-27 11:16:00,
2013-03-27 12:22:00,64.8,53.2,29.61,SSW,205,6.0,9.0,66,0.00,,,0.01,533,Wunderground v.1.15,2013-03-27 11:22:00,
2013-03-27 12:28:00,65.6,53.1,29.61,WSW,237,6.0,9.0,64,0.00,,,0.01,902,Wunderground v.1.15,2013-03-27 11:28:00,
2013-03-27 12:36:00,67.0,51.7,29.62,WNW,288,6.0,8.0,58,0.00,,,0.01,1074,Wunderground v.1.15,2013-03-27 11:36:00,
2013-03-27 12:42:00,66.4,50.7,29.61,West,263,7.0,7.0,57,0.00,,,0.01,388,Wunderground v.1.15,2013-03-27 11:42:00,
2013-03-27 12:48:00,65.7,50.5,29.61,WNW,290,6.0,7.0,58,0.00,,,0.01,330,Wunderground v.1.15,2013-03-27 11:48:00,
2013-03-27 12:58:00,65.4,50.7,29.61,West,279,5.0,7.0,59,0.00,,,0.01,251,Wunderground v.1.15,2013-03-27 11:58:00,
2013-03-27 13:08:00,64.8,50.1,29.62,West,275,9.0,10.0,59,0.00,,,0.01,311,Wunderground v.1.15,2013-03-27 12:08:00,
2013-03-27 13:18:00,66.1,49.9,29.62,WNW,290,9.0,13.0,56,0.00,,,0.01,898,Wunderground v.1.15,2013-03-27 12:18:00,
2013-03-27 13:28:00,66.5,48.8,29.61,WSW,254,9.0,15.0,53,0.00,,,0.01,900,Wunderground v.1.15,2013-03-27 12:28:00,
2013-03-27 13:38:00,66.9,50.2,29.62,West,274,11.0,13.0,55,0.00,,,0.01,902,Wunderground v.1.15,2013-03-27 12:38:00,
2013-03-27 13:46:00,67.5,49.3,29.61,West,272,8.0,10.0,52,0.00,,,0.01,882,Wunderground v.1.15,2013-03-27 12:46:00,
2013-03-27 13:52:00,67.6,50.4,29.61,West,277,8.0,8.0,54,0.00,,,0.01,881,Wunderground v.1.15,2013-03-27 12:52:00,
2013-03-27 13:58:00,67.9,50.1,29.61,West,273,7.0,13.0,53,0.00,,,0.01,849,Wunderground v.1.15,2013-03-27 12:58:00,
2013-03-27 14:06:00,67.8,49.5,29.61,West,280,8.0,8.0,52,0.00,,,0.01,870,Wunderground v.1.15,2013-03-27 13:06:00,
2013-03-27 14:12:00,67.5,50.3,29.61,West,277,6.0,9.0,54,0.00,,,0.01,369,Wunderground v.1.15,2013-03-27 13:12:00,
2013-03-27 14:18:00,67.4,50.2,29.61,WSW,244,5.0,9.0,54,0.00,,,0.01,330,Wunderground v.1.15,2013-03-27 13:18:00,
2013-03-27 14:26:00,66.8,50.6,29.61,NW,315,5.0,7.0,56,0.00,,,0.01,297,Wunderground v.1.15,2013-03-27 13:26:00,
2013-03-27 14:32:00,66.1,49.5,29.61,NW,312,7.0,11.0,55,0.00,,,0.01,287,Wunderground v.1.15,2013-03-27 13:32:00,
2013-03-27 14:38:00,66.5,49.8,29.61,NW,321,9.0,11.0,55,0.00,,,0.01,911,Wunderground v.1.15,2013-03-27 13:38:00,
2013-03-27 14:48:00,66.5,49.8,29.61,West,263,10.0,13.0,55,0.00,,,0.01,837,Wunderground v.1.15,2013-03-27 13:48:00,
2013-03-27 14:58:00,66.5,50.3,29.61,West,264,11.0,11.0,56,0.00,,,0.01,754,Wunderground v.1.15,2013-03-27 13:58:00,
2013-03-27 15:06:00,66.6,50.4,29.61,WNW,284,10.0,13.0,56,0.00,,,0.01,735,Wunderground v.1.15,2013-03-27 14:06:00,
2013-03-27 15:12:00,66.7,50.0,29.61,WNW,296,10.0,11.0,55,0.00,,,0.01,738,Wunderground v.1.15,2013-03-27 14:12:00,
2013-03-27 15:18:00,66.8,49.6,29.61,West,265,10.0,11.0,54,0.00,,,0.01,698,Wunderground v.1.15,2013-03-27 14:18:00,
2013-03-27 15:26:00,67.1,50.9,29.61,West,265,9.0,13.0,56,0.00,,,0.01,680,Wunderground v.1.15,2013-03-27 14:26:00,
2013-03-27 15:32:00,67.2,51.0,29.60,WSW,244,10.0,15.0,56,0.00,,,0.01,652,Wunderground v.1.15,2013-03-27 14:32:00,
2013-03-27 15:38:00,67.4,50.7,29.60,West,260,11.0,15.0,55,0.00,,,0.01,649,Wunderground v.1.15,2013-03-27 14:38:00,
2013-03-27 15:48:00,67.7,51.4,29.61,NW,304,9.0,11.0,56,0.00,,,0.01,631,Wunderground v.1.15,2013-03-27 14:48:00,
2013-03-27 15:58:00,67.9,51.1,29.61,West,261,8.0,11.0,55,0.00,,,0.01,599,Wunderground v.1.15,2013-03-27 14:58:00,
2013-03-27 16:08:00,67.8,51.0,29.61,WSW,254,9.0,9.0,55,0.00,,,0.01,591,Wunderground v.1.15,2013-03-27 15:08:00,
2013-03-27 16:16:00,67.4,51.2,29.61,WSW,242,9.0,10.0,56,0.00,,,0.01,573,Wunderground v.1.15,2013-03-27 15:16:00,
2013-03-27 16:22:00,67.7,51.9,29.61,West,281,8.0,9.0,57,0.00,,,0.01,508,Wunderground v.1.15,2013-03-27 15:22:00,
2013-03-27 16:28:00,68.1,51.3,29.61,West,260,7.0,9.0,55,0.00,,,0.01,515,Wunderground v.1.15,2013-03-27 15:28:00,
2013-03-27 16:38:00,67.8,50.0,29.61,WSW,250,9.0,13.0,53,0.00,,,0.01,476,Wunderground v.1.15,2013-03-27 15:38:00,
2013-03-27 16:46:00,67.8,50.5,29.61,West,259,9.0,14.0,54,0.00,,,0.01,434,Wunderground v.1.15,2013-03-27 15:46:00,
2013-03-27 16:52:00,67.6,50.4,29.61,WNW,283,9.0,11.0,54,0.00,,,0.01,406,Wunderground v.1.15,2013-03-27 15:52:00,
2013-03-27 16:58:00,67.6,50.4,29.61,West,277,8.0,11.0,54,0.00,,,0.01,385,Wunderground v.1.15,2013-03-27 15:58:00,
2013-03-27 17:06:00,67.8,50.5,29.61,West,270,8.0,9.0,54,0.00,,,0.01,359,Wunderground v.1.15,2013-03-27 16:06:00,
2013-03-27 17:12:00,67.9,50.1,29.61,West,275,7.0,9.0,53,0.00,,,0.01,341,Wunderground v.1.15,2013-03-27 16:12:00,
2013-03-27 17:18:00,67.8,50.5,29.62,WNW,291,6.0,12.0,54,0.00,,,0.01,320,Wunderground v.1.15,2013-03-27 16:18:00,
2013-03-27 17:28:00,67.5,49.8,29.62,West,279,7.0,13.0,53,0.00,,,0.01,299,Wunderground v.1.15,2013-03-27 16:28:00,
2013-03-27 17:36:00,67.2,50.0,29.63,WSW,253,7.0,8.0,54,0.00,,,0.01,274,Wunderground v.1.15,2013-03-27 16:36:00,
2013-03-27 17:42:00,67.3,50.1,29.63,West,275,6.0,7.0,54,0.00,,,0.01,246,Wunderground v.1.15,2013-03-27 16:42:00,
2013-03-27 17:48:00,67.3,50.1,29.63,West,261,6.0,7.0,54,0.00,,,0.01,230,Wunderground v.1.15,2013-03-27 16:48:00,
2013-03-27 17:58:00,66.3,52.0,29.63,WSW,244,7.0,11.0,60,0.00,,,0.01,188,Wunderground v.1.15,2013-03-27 16:58:00,
2013-03-27 18:06:00,64.8,52.3,29.63,WSW,257,10.0,14.0,64,0.00,,,0.01,155,Wunderground v.1.15,2013-03-27 17:06:00,
2013-03-27 18:12:00,64.1,52.1,29.64,WSW,249,10.0,11.0,65,0.00,,,0.01,47,Wunderground v.1.15,2013-03-27 17:12:00,
2013-03-27 18:18:00,63.5,51.9,29.64,WSW,255,10.0,11.0,66,0.00,,,0.01,77,Wunderground v.1.15,2013-03-27 17:18:00,
2013-03-27 18:26:00,63.2,52.1,29.64,West,263,8.0,10.0,67,0.00,,,0.01,81,Wunderground v.1.15,2013-03-27 17:26:00,
2013-03-27 18:32:00,63.4,52.2,29.64,WSW,257,5.0,6.0,67,0.00,,,0.01,44,Wunderground v.1.15,2013-03-27 17:32:00,
2013-03-27 18:38:00,63.2,52.1,29.64,WSW,248,3.0,6.0,67,0.00,,,0.01,39,Wunderground v.1.15,2013-03-27 17:38:00,
2013-03-27 18:48:00,62.5,52.2,29.64,WSW,248,3.0,6.0,69,0.00,,,0.01,19,Wunderground v.1.15,2013-03-27 17:48:00,
2013-03-27 18:58:00,61.7,52.2,29.65,WSW,244,6.0,7.0,71,0.00,,,0.01,9,Wunderground v.1.15,2013-03-27 17:58:00,
2013-03-27 19:08:00,61.1,52.0,29.66,WSW,241,4.0,6.0,72,0.00,,,0.01,0,Wunderground v.1.15,2013-03-27 18:08:00,
2013-03-27 19:16:00,60.7,52.0,29.66,WSW,244,3.0,4.0,73,0.00,,,0.01,0,Wunderground v.1.15,2013-03-27 18:16:00,
2013-03-27 19:22:00,60.4,51.7,29.66,WSW,245,3.0,3.0,73,0.00,,,0.01,0,Wunderground v.1.15,2013-03-27 18:22:00,
2013-03-27 19:28:00,59.9,51.6,29.67,WSW,245,3.0,4.0,74,0.00,,,0.01,0,Wunderground v.1.15,2013-03-27 18:28:00,
2013-03-27 19:36:00,59.5,51.6,29.67,WSW,246,4.0,6.0,75,0.00,,,0.01,0,Wunderground v.1.15,2013-03-27 18:36:00,
2013-03-27 19:42:00,59.4,51.8,29.67,WSW,248,6.0,7.0,76,0.00,,,0.01,0,Wunderground v.1.15,2013-03-27 18:42:00,
2013-03-27 19:48:00,58.5,51.3,29.67,WSW,248,6.0,9.0,77,0.00,,,0.01,0,Wunderground v.1.15,2013-03-27 18:48:00,
2013-03-27 19:56:00,58.5,51.7,29.67,WSW,242,9.0,11.0,78,0.00,,,0.01,0,Wunderground v.1.15,2013-03-27 18:56:00,
2013-03-27 20:02:00,58.2,52.1,29.68,WSW,250,9.0,10.0,80,0.00,,,0.01,0,Wunderground v.1.15,2013-03-27 19:02:00,
2013-03-27 20:08:00,57.8,52.3,29.67,WSW,252,9.0,10.0,82,0.00,,,0.01,0,Wunderground v.1.15,2013-03-27 19:08:00,
2013-03-27 20:18:00,57.4,52.6,29.68,WSW,251,9.0,12.0,84,0.00,,,0.01,0,Wunderground v.1.15,2013-03-27 19:18:00,
2013-03-27 20:28:00,57.1,52.6,29.68,WSW,240,7.0,9.0,85,0.00,,,0.01,0,Wunderground v.1.15,2013-03-27 19:28:00,
2013-03-27 20:38:00,56.9,52.8,29.68,WSW,251,8.0,9.0,86,0.00,,,0.01,0,Wunderground v.1.15,2013-03-27 19:38:00,
2013-03-27 20:48:00,56.7,52.9,29.68,WSW,252,6.0,8.0,87,0.00,,,0.01,0,Wunderground v.1.15,2013-03-27 19:48:00,
2013-03-27 20:58:00,56.7,52.9,29.69,WSW,257,4.0,7.0,87,0.00,,,0.01,0,Wunderground v.1.15,2013-03-27 19:58:00,
2013-03-27 21:08:00,56.5,53.0,29.69,WSW,252,5.0,6.0,88,0.00,,,0.01,0,Wunderground v.1.15,2013-03-27 20:08:00,
2013-03-27 21:18:00,56.4,52.9,29.69,WNW,285,4.0,4.0,88,0.00,,,0.01,0,Wunderground v.1.15,2013-03-27 20:18:00,
2013-03-27 21:28:00,56.5,53.0,29.70,WNW,284,2.0,4.0,88,0.00,,,0.01,0,Wunderground v.1.15,2013-03-27 20:28:00,
2013-03-27 21:36:00,56.5,53.0,29.69,WNW,284,2.0,4.0,88,0.00,,,0.01,0,Wunderground v.1.15,2013-03-27 20:36:00,
2013-03-27 21:42:00,56.5,53.3,29.70,WNW,284,1.0,5.0,89,0.00,,,0.01,0,Wunderground v.1.15,2013-03-27 20:42:00,
2013-03-27 21:48:00,56.5,53.0,29.70,WNW,285,1.0,5.0,88,0.00,,,0.01,0,Wunderground v.1.15,2013-03-27 20:48:00,
2013-03-27 21:58:00,56.3,53.1,29.70,WNW,285,3.0,4.0,89,0.00,,,0.01,0,Wunderground v.1.15,2013-03-27 20:58:00,
2013-03-27 22:08:00,56.2,53.0,29.70,West,259,4.0,6.0,89,0.00,,,0.01,0,Wunderground v.1.15,2013-03-27 21:08:00,
2013-03-27 22:18:00,56.0,52.8,29.70,West,259,2.0,4.0,89,0.00,,,0.01,0,Wunderground v.1.15,2013-03-27 21:18:00,
2013-03-27 22:28:00,55.9,52.7,29.70,WSW,258,5.0,6.0,89,0.00,,,0.01,0,Wunderground v.1.15,2013-03-27 21:28:00,
2013-03-27 22:38:00,55.9,53.0,29.70,WSW,257,4.0,5.0,90,0.00,,,0.01,0,Wunderground v.1.15,2013-03-27 21:38:00,
2013-03-27 22:48:00,55.8,52.9,29.70,WSW,258,5.0,5.0,90,0.00,,,0.01,0,Wunderground v.1.15,2013-03-27 21:48:00,
2013-03-27 22:58:00,55.7,52.8,29.70,West,260,5.0,7.0,90,0.00,,,0.01,0,Wunderground v.1.15,2013-03-27 21:58:00,
2013-03-27 23:06:00,55.5,52.6,29.69,West,273,4.0,5.0,90,0.00,,,0.01,0,Wunderground v.1.15,2013-03-27 22:06:00,
2013-03-27 23:12:00,55.4,52.5,29.70,West,276,4.0,5.0,90,0.00,,,0.01,0,Wunderground v.1.15,2013-03-27 22:12:00,
2013-03-27 23:18:00,55.4,52.8,29.70,West,276,3.0,5.0,91,0.00,,,0.01,0,Wunderground v.1.15,2013-03-27 22:18:00,
2013-03-27 23:26:00,55.5,52.9,29.69,West,275,2.0,3.0,91,0.00,,,0.01,0,Wunderground v.1.15,2013-03-27 22:26:00,
2013-03-27 23:32:00,55.4,52.8,29.69,West,275,2.0,6.0,91,0.00,,,0.01,0,Wunderground v.1.15,2013-03-27 22:32:00,
2013-03-27 23:38:00,55.3,52.7,29.69,West,276,4.0,6.0,91,0.00,,,0.01,0,Wunderground v.1.15,2013-03-27 22:38:00,
2013-03-27 23:46:00,55.3,52.7,29.69,West,275,3.0,5.0,91,0.00,,,0.01,0,Wunderground v.1.15,2013-03-27 22:46:00,
2013-03-27 23:52:00,55.3,52.7,29.69,West,276,4.0,4.0,91,0.00,,,0.01,0,Wunderground v.1.15,2013-03-27 22:52:00,
2013-03-27 23:58:00,55.3,52.7,29.69,West,272,4.0,6.0,91,0.00,,,0.01,0,Wunderground v.1.15,2013-03-27 22:58:00,